sensor_id;sensor_type;location;lat;lon;timestamp;P1;durP1;ratioP1;P2;durP2;ratioP2
47545;SDS011;50104;52.002;4.688;2023-05-10T00:03:25;27.38;;;15.38;;
47545;SDS011;50104;52.002;4.688;2023-05-10T00:08:26;24.33;;;14.80;;
47545;SDS011;50104;52.002;4.688;2023-05-10T00:13:27;30.88;;;17.00;;
47545;SDS011;50104;52.002;4.688;2023-05-10T00:18:29;31.15;;;16.30;;
47545;SDS011;50104;52.002;4.688;2023-05-10T00:23:30;30.83;;;16.70;;
47545;SDS011;50104;52.002;4.688;2023-05-10T00:28:31;35.42;;;17.85;;
47545;SDS011;50104;52.002;4.688;2023-05-10T00:33:32;43.67;;;18.23;;
47545;SDS011;50104;52.002;4.688;2023-05-10T00:38:33;35.63;;;17.75;;
47545;SDS011;50104;52.002;4.688;2023-05-10T00:43:34;34.53;;;17.40;;
47545;SDS011;50104;52.002;4.688;2023-05-10T00:48:35;40.17;;;20.30;;
47545;SDS011;50104;52.002;4.688;2023-05-10T00:53:36;44.60;;;21.92;;
47545;SDS011;50104;52.002;4.688;2023-05-10T00:58:38;38.67;;;21.70;;
47545;SDS011;50104;52.002;4.688;2023-05-10T01:03:40;46.33;;;22.75;;
47545;SDS011;50104;52.002;4.688;2023-05-10T01:08:41;41.88;;;21.20;;
47545;SDS011;50104;52.002;4.688;2023-05-10T01:13:43;45.28;;;22.52;;
47545;SDS011;50104;52.002;4.688;2023-05-10T01:18:50;52.00;;;23.13;;
47545;SDS011;50104;52.002;4.688;2023-05-10T01:24:39;54.90;;;25.27;;
47545;SDS011;50104;52.002;4.688;2023-05-10T01:40:32;61.45;;;26.45;;
47545;SDS011;50104;52.002;4.688;2023-05-10T01:45:58;58.03;;;25.95;;
47545;SDS011;50104;52.002;4.688;2023-05-10T01:51:10;52.92;;;25.33;;
47545;SDS011;50104;52.002;4.688;2023-05-10T01:56:11;53.78;;;23.77;;
47545;SDS011;50104;52.002;4.688;2023-05-10T02:01:13;56.08;;;26.13;;
47545;SDS011;50104;52.002;4.688;2023-05-10T02:06:16;52.97;;;26.80;;
47545;SDS011;50104;52.002;4.688;2023-05-10T02:11:20;48.83;;;24.50;;
47545;SDS011;50104;52.002;4.688;2023-05-10T02:16:23;57.63;;;26.88;;
47545;SDS011;50104;52.002;4.688;2023-05-10T02:21:26;54.25;;;27.08;;
47545;SDS011;50104;52.002;4.688;2023-05-10T02:26:29;51.00;;;26.48;;
47545;SDS011;50104;52.002;4.688;2023-05-10T02:31:34;51.55;;;24.98;;
47545;SDS011;50104;52.002;4.688;2023-05-10T02:36:35;54.85;;;25.27;;
47545;SDS011;50104;52.002;4.688;2023-05-10T02:41:38;58.47;;;26.75;;
47545;SDS011;50104;52.002;4.688;2023-05-10T02:46:42;58.85;;;26.50;;
47545;SDS011;50104;52.002;4.688;2023-05-10T02:51:44;64.05;;;28.17;;
47545;SDS011;50104;52.002;4.688;2023-05-10T02:56:53;58.55;;;29.55;;
47545;SDS011;50104;52.002;4.688;2023-05-10T03:02:01;52.92;;;27.10;;
47545;SDS011;50104;52.002;4.688;2023-05-10T03:07:25;53.60;;;28.17;;
47545;SDS011;50104;52.002;4.688;2023-05-10T03:12:47;61.47;;;32.38;;
47545;SDS011;50104;52.002;4.688;2023-05-10T03:18:07;54.67;;;30.10;;
47545;SDS011;50104;52.002;4.688;2023-05-10T03:28:22;52.35;;;29.40;;
47545;SDS011;50104;52.002;4.688;2023-05-10T03:33:27;56.83;;;31.55;;
47545;SDS011;50104;52.002;4.688;2023-05-10T03:38:27;58.33;;;29.10;;
47545;SDS011;50104;52.002;4.688;2023-05-10T03:43:28;56.03;;;29.02;;
47545;SDS011;50104;52.002;4.688;2023-05-10T03:48:29;51.78;;;30.73;;
47545;SDS011;50104;52.002;4.688;2023-05-10T03:53:32;56.55;;;31.45;;
47545;SDS011;50104;52.002;4.688;2023-05-10T03:58:33;56.25;;;30.58;;
47545;SDS011;50104;52.002;4.688;2023-05-10T04:03:33;53.58;;;31.45;;
47545;SDS011;50104;52.002;4.688;2023-05-10T04:08:36;59.83;;;31.88;;
47545;SDS011;50104;52.002;4.688;2023-05-10T04:13:37;52.00;;;30.15;;
47545;SDS011;50104;52.002;4.688;2023-05-10T04:18:38;53.28;;;29.55;;
47545;SDS011;50104;52.002;4.688;2023-05-10T04:23:40;50.80;;;30.08;;
47545;SDS011;50104;52.002;4.688;2023-05-10T04:28:41;48.28;;;28.92;;
47545;SDS011;50104;52.002;4.688;2023-05-10T04:33:41;52.50;;;30.70;;
47545;SDS011;50104;52.002;4.688;2023-05-10T04:38:42;49.35;;;29.67;;
47545;SDS011;50104;52.002;4.688;2023-05-10T04:43:43;48.08;;;27.45;;
47545;SDS011;50104;52.002;4.688;2023-05-10T04:48:44;49.00;;;29.08;;
47545;SDS011;50104;52.002;4.688;2023-05-10T04:53:45;50.97;;;29.17;;
47545;SDS011;50104;52.002;4.688;2023-05-10T04:58:47;49.28;;;29.55;;
47545;SDS011;50104;52.002;4.688;2023-05-10T05:03:47;41.53;;;24.40;;
47545;SDS011;50104;52.002;4.688;2023-05-10T05:08:48;32.10;;;21.42;;
47545;SDS011;50104;52.002;4.688;2023-05-10T05:13:49;39.33;;;22.50;;
47545;SDS011;50104;52.002;4.688;2023-05-10T05:18:50;36.65;;;23.05;;
47545;SDS011;50104;52.002;4.688;2023-05-10T05:23:51;38.20;;;22.98;;
47545;SDS011;50104;52.002;4.688;2023-05-10T05:28:51;32.50;;;21.35;;
47545;SDS011;50104;52.002;4.688;2023-05-10T05:33:54;34.58;;;21.27;;
47545;SDS011;50104;52.002;4.688;2023-05-10T05:38:57;35.33;;;22.40;;
47545;SDS011;50104;52.002;4.688;2023-05-10T05:43:57;30.10;;;19.40;;
47545;SDS011;50104;52.002;4.688;2023-05-10T05:48:58;30.60;;;17.92;;
47545;SDS011;50104;52.002;4.688;2023-05-10T05:53:59;19.17;;;11.82;;
47545;SDS011;50104;52.002;4.688;2023-05-10T05:59:00;16.50;;;10.10;;
47545;SDS011;50104;52.002;4.688;2023-05-10T06:04:01;12.25;;;7.93;;
47545;SDS011;50104;52.002;4.688;2023-05-10T06:09:22;13.02;;;8.18;;
47545;SDS011;50104;52.002;4.688;2023-05-10T06:14:24;16.05;;;9.60;;
47545;SDS011;50104;52.002;4.688;2023-05-10T06:19:25;16.42;;;8.75;;
47545;SDS011;50104;52.002;4.688;2023-05-10T06:24:26;15.70;;;8.13;;
47545;SDS011;50104;52.002;4.688;2023-05-10T06:29:27;13.90;;;8.32;;
47545;SDS011;50104;52.002;4.688;2023-05-10T06:34:28;11.65;;;7.63;;
47545;SDS011;50104;52.002;4.688;2023-05-10T06:39:29;8.35;;;5.78;;
47545;SDS011;50104;52.002;4.688;2023-05-10T06:44:30;8.73;;;6.40;;
47545;SDS011;50104;52.002;4.688;2023-05-10T06:49:31;9.68;;;6.30;;
47545;SDS011;50104;52.002;4.688;2023-05-10T06:54:32;9.10;;;6.28;;
47545;SDS011;50104;52.002;4.688;2023-05-10T06:59:32;10.23;;;6.63;;
47545;SDS011;50104;52.002;4.688;2023-05-10T07:04:33;6.97;;;5.57;;
47545;SDS011;50104;52.002;4.688;2023-05-10T07:09:34;5.50;;;4.90;;
47545;SDS011;50104;52.002;4.688;2023-05-10T07:14:35;8.32;;;5.45;;
47545;SDS011;50104;52.002;4.688;2023-05-10T07:19:36;5.75;;;5.05;;
47545;SDS011;50104;52.002;4.688;2023-05-10T07:24:37;4.50;;;4.10;;
47545;SDS011;50104;52.002;4.688;2023-05-10T07:29:38;7.47;;;5.00;;
47545;SDS011;50104;52.002;4.688;2023-05-10T07:34:39;6.00;;;4.35;;
47545;SDS011;50104;52.002;4.688;2023-05-10T07:39:39;5.60;;;4.40;;
47545;SDS011;50104;52.002;4.688;2023-05-10T07:44:40;5.07;;;4.10;;
47545;SDS011;50104;52.002;4.688;2023-05-10T07:49:41;4.60;;;3.90;;
47545;SDS011;50104;52.002;4.688;2023-05-10T07:54:43;6.82;;;3.85;;
47545;SDS011;50104;52.002;4.688;2023-05-10T07:59:44;4.68;;;3.88;;
47545;SDS011;50104;52.002;4.688;2023-05-10T08:04:45;5.65;;;4.68;;
47545;SDS011;50104;52.002;4.688;2023-05-10T08:09:46;7.28;;;5.07;;
47545;SDS011;50104;52.002;4.688;2023-05-10T08:14:47;7.65;;;5.05;;
47545;SDS011;50104;52.002;4.688;2023-05-10T08:19:49;8.95;;;4.80;;
47545;SDS011;50104;52.002;4.688;2023-05-10T08:24:50;6.50;;;4.90;;
47545;SDS011;50104;52.002;4.688;2023-05-10T08:29:51;7.10;;;4.80;;
47545;SDS011;50104;52.002;4.688;2023-05-10T08:34:52;7.72;;;4.57;;
47545;SDS011;50104;52.002;4.688;2023-05-10T08:39:53;5.55;;;4.25;;
47545;SDS011;50104;52.002;4.688;2023-05-10T08:44:53;7.07;;;4.88;;
47545;SDS011;50104;52.002;4.688;2023-05-10T08:49:55;7.72;;;4.80;;
47545;SDS011;50104;52.002;4.688;2023-05-10T08:54:59;8.60;;;5.07;;
47545;SDS011;50104;52.002;4.688;2023-05-10T09:00:00;7.30;;;5.50;;
47545;SDS011;50104;52.002;4.688;2023-05-10T09:05:03;6.07;;;4.93;;
47545;SDS011;50104;52.002;4.688;2023-05-10T09:10:05;6.50;;;4.45;;
47545;SDS011;50104;52.002;4.688;2023-05-10T09:15:06;7.72;;;4.97;;
47545;SDS011;50104;52.002;4.688;2023-05-10T09:20:09;8.35;;;5.03;;
47545;SDS011;50104;52.002;4.688;2023-05-10T09:25:14;8.77;;;5.07;;
47545;SDS011;50104;52.002;4.688;2023-05-10T09:30:17;10.07;;;5.55;;
47545;SDS011;50104;52.002;4.688;2023-05-10T09:35:29;6.85;;;5.03;;
47545;SDS011;50104;52.002;4.688;2023-05-10T09:40:31;6.25;;;4.07;;
47545;SDS011;50104;52.002;4.688;2023-05-10T09:45:33;4.63;;;3.55;;
47545;SDS011;50104;52.002;4.688;2023-05-10T09:50:35;4.65;;;3.38;;
47545;SDS011;50104;52.002;4.688;2023-05-10T09:55:43;5.95;;;4.07;;
47545;SDS011;50104;52.002;4.688;2023-05-10T10:00:46;6.28;;;4.47;;
47545;SDS011;50104;52.002;4.688;2023-05-10T10:05:51;5.57;;;4.40;;
47545;SDS011;50104;52.002;4.688;2023-05-10T10:10:53;6.10;;;4.30;;
47545;SDS011;50104;52.002;4.688;2023-05-10T10:15:54;5.35;;;4.57;;
47545;SDS011;50104;52.002;4.688;2023-05-10T10:20:55;5.50;;;4.35;;
47545;SDS011;50104;52.002;4.688;2023-05-10T10:25:56;6.45;;;4.60;;
47545;SDS011;50104;52.002;4.688;2023-05-10T10:30:59;4.85;;;3.90;;
47545;SDS011;50104;52.002;4.688;2023-05-10T10:36:14;8.40;;;5.77;;
47545;SDS011;50104;52.002;4.688;2023-05-10T10:41:35;8.77;;;5.47;;
47545;SDS011;50104;52.002;4.688;2023-05-10T10:52:15;9.60;;;6.00;;
47545;SDS011;50104;52.002;4.688;2023-05-10T11:13:03;7.43;;;5.53;;
47545;SDS011;50104;52.002;4.688;2023-05-10T11:18:18;9.85;;;5.82;;
47545;SDS011;50104;52.002;4.688;2023-05-10T11:23:47;7.30;;;5.93;;
47545;SDS011;50104;52.002;4.688;2023-05-10T11:28:59;6.90;;;5.55;;
47545;SDS011;50104;52.002;4.688;2023-05-10T11:34:01;6.68;;;5.25;;
47545;SDS011;50104;52.002;4.688;2023-05-10T11:39:03;4.80;;;4.30;;
47545;SDS011;50104;52.002;4.688;2023-05-10T11:44:05;5.70;;;4.85;;
47545;SDS011;50104;52.002;4.688;2023-05-10T11:49:09;5.00;;;4.38;;
47545;SDS011;50104;52.002;4.688;2023-05-10T11:54:11;5.18;;;4.50;;
47545;SDS011;50104;52.002;4.688;2023-05-10T11:59:13;5.30;;;4.60;;
47545;SDS011;50104;52.002;4.688;2023-05-10T12:04:15;6.88;;;4.57;;
47545;SDS011;50104;52.002;4.688;2023-05-10T12:09:16;5.30;;;4.25;;
47545;SDS011;50104;52.002;4.688;2023-05-10T12:14:16;8.60;;;6.57;;
47545;SDS011;50104;52.002;4.688;2023-05-10T12:19:19;7.45;;;5.97;;
47545;SDS011;50104;52.002;4.688;2023-05-10T12:24:21;5.75;;;4.72;;
47545;SDS011;50104;52.002;4.688;2023-05-10T12:29:21;6.65;;;5.45;;
47545;SDS011;50104;52.002;4.688;2023-05-10T12:34:26;6.63;;;4.63;;
47545;SDS011;50104;52.002;4.688;2023-05-10T12:39:38;4.65;;;4.05;;
47545;SDS011;50104;52.002;4.688;2023-05-10T12:44:46;5.80;;;4.43;;
47545;SDS011;50104;52.002;4.688;2023-05-10T12:49:46;7.57;;;4.60;;
47545;SDS011;50104;52.002;4.688;2023-05-10T12:54:47;6.88;;;4.80;;
47545;SDS011;50104;52.002;4.688;2023-05-10T12:59:49;6.15;;;4.20;;
47545;SDS011;50104;52.002;4.688;2023-05-10T13:04:50;6.45;;;4.97;;
47545;SDS011;50104;52.002;4.688;2023-05-10T13:09:51;8.30;;;5.15;;
47545;SDS011;50104;52.002;4.688;2023-05-10T13:14:52;7.22;;;4.35;;
47545;SDS011;50104;52.002;4.688;2023-05-10T13:19:53;6.50;;;4.63;;
47545;SDS011;50104;52.002;4.688;2023-05-10T13:24:53;8.57;;;5.30;;
47545;SDS011;50104;52.002;4.688;2023-05-10T13:29:55;7.22;;;4.65;;
47545;SDS011;50104;52.002;4.688;2023-05-10T13:34:56;9.27;;;4.72;;
47545;SDS011;50104;52.002;4.688;2023-05-10T13:39:56;8.15;;;4.88;;
47545;SDS011;50104;52.002;4.688;2023-05-10T13:44:57;5.32;;;4.03;;
47545;SDS011;50104;52.002;4.688;2023-05-10T13:49:58;7.05;;;5.00;;
47545;SDS011;50104;52.002;4.688;2023-05-10T13:54:59;7.68;;;4.63;;
47545;SDS011;50104;52.002;4.688;2023-05-10T14:00:01;7.03;;;4.10;;
47545;SDS011;50104;52.002;4.688;2023-05-10T14:05:02;5.25;;;3.55;;
47545;SDS011;50104;52.002;4.688;2023-05-10T14:10:03;6.03;;;4.18;;
47545;SDS011;50104;52.002;4.688;2023-05-10T14:15:04;6.68;;;4.78;;
47545;SDS011;50104;52.002;4.688;2023-05-10T14:20:06;5.97;;;4.40;;
47545;SDS011;50104;52.002;4.688;2023-05-10T14:25:08;5.72;;;4.32;;
47545;SDS011;50104;52.002;4.688;2023-05-10T14:30:09;6.47;;;4.82;;
47545;SDS011;50104;52.002;4.688;2023-05-10T14:35:10;6.35;;;3.95;;
47545;SDS011;50104;52.002;4.688;2023-05-10T14:40:12;5.65;;;4.43;;
47545;SDS011;50104;52.002;4.688;2023-05-10T14:45:15;4.28;;;3.72;;
47545;SDS011;50104;52.002;4.688;2023-05-10T14:50:16;4.22;;;3.10;;
47545;SDS011;50104;52.002;4.688;2023-05-10T14:55:18;6.75;;;3.72;;
47545;SDS011;50104;52.002;4.688;2023-05-10T15:00:19;4.68;;;3.33;;
47545;SDS011;50104;52.002;4.688;2023-05-10T15:05:20;5.00;;;3.75;;
47545;SDS011;50104;52.002;4.688;2023-05-10T15:10:22;6.15;;;4.60;;
47545;SDS011;50104;52.002;4.688;2023-05-10T15:15:23;6.45;;;4.20;;
47545;SDS011;50104;52.002;4.688;2023-05-10T15:20:24;4.88;;;4.03;;
47545;SDS011;50104;52.002;4.688;2023-05-10T15:25:24;5.47;;;4.05;;
47545;SDS011;50104;52.002;4.688;2023-05-10T15:30:26;4.28;;;3.00;;
47545;SDS011;50104;52.002;4.688;2023-05-10T15:35:26;4.65;;;3.78;;
47545;SDS011;50104;52.002;4.688;2023-05-10T15:40:28;6.75;;;3.85;;
47545;SDS011;50104;52.002;4.688;2023-05-10T15:45:29;5.13;;;3.58;;
47545;SDS011;50104;52.002;4.688;2023-05-10T15:50:30;4.25;;;3.85;;
47545;SDS011;50104;52.002;4.688;2023-05-10T15:55:31;5.70;;;3.97;;
47545;SDS011;50104;52.002;4.688;2023-05-10T16:00:32;4.15;;;3.40;;
47545;SDS011;50104;52.002;4.688;2023-05-10T16:05:33;4.95;;;3.42;;
47545;SDS011;50104;52.002;4.688;2023-05-10T16:10:34;5.10;;;3.88;;
47545;SDS011;50104;52.002;4.688;2023-05-10T16:15:36;4.50;;;3.47;;
47545;SDS011;50104;52.002;4.688;2023-05-10T16:20:37;4.35;;;3.60;;
47545;SDS011;50104;52.002;4.688;2023-05-10T16:25:39;4.07;;;3.35;;
47545;SDS011;50104;52.002;4.688;2023-05-10T16:30:41;3.30;;;3.00;;
47545;SDS011;50104;52.002;4.688;2023-05-10T16:35:41;3.90;;;3.35;;
47545;SDS011;50104;52.002;4.688;2023-05-10T16:40:43;3.60;;;2.70;;
47545;SDS011;50104;52.002;4.688;2023-05-10T16:45:44;4.13;;;2.95;;
47545;SDS011;50104;52.002;4.688;2023-05-10T16:50:45;3.97;;;3.13;;
47545;SDS011;50104;52.002;4.688;2023-05-10T16:55:46;4.53;;;3.50;;
47545;SDS011;50104;52.002;4.688;2023-05-10T17:00:47;6.95;;;4.68;;
47545;SDS011;50104;52.002;4.688;2023-05-10T17:05:48;7.47;;;4.63;;
47545;SDS011;50104;52.002;4.688;2023-05-10T17:10:49;7.35;;;5.32;;
47545;SDS011;50104;52.002;4.688;2023-05-10T17:15:50;7.38;;;5.47;;
47545;SDS011;50104;52.002;4.688;2023-05-10T17:20:51;6.15;;;4.53;;
47545;SDS011;50104;52.002;4.688;2023-05-10T17:25:52;5.80;;;4.30;;
47545;SDS011;50104;52.002;4.688;2023-05-10T17:30:56;6.97;;;5.38;;
47545;SDS011;50104;52.002;4.688;2023-05-10T17:35:57;9.90;;;5.75;;
47545;SDS011;50104;52.002;4.688;2023-05-10T17:40:58;7.00;;;4.43;;
47545;SDS011;50104;52.002;4.688;2023-05-10T17:45:59;6.05;;;4.40;;
47545;SDS011;50104;52.002;4.688;2023-05-10T17:51:00;6.18;;;3.80;;
47545;SDS011;50104;52.002;4.688;2023-05-10T17:56:01;5.00;;;3.42;;
47545;SDS011;50104;52.002;4.688;2023-05-10T18:01:02;7.50;;;4.05;;
47545;SDS011;50104;52.002;4.688;2023-05-10T18:06:04;6.53;;;3.70;;
47545;SDS011;50104;52.002;4.688;2023-05-10T18:11:06;5.22;;;3.28;;
47545;SDS011;50104;52.002;4.688;2023-05-10T18:16:07;4.05;;;3.00;;
47545;SDS011;50104;52.002;4.688;2023-05-10T18:21:11;6.88;;;3.95;;
47545;SDS011;50104;52.002;4.688;2023-05-10T18:26:12;6.05;;;4.25;;
47545;SDS011;50104;52.002;4.688;2023-05-10T18:31:13;6.80;;;4.65;;
47545;SDS011;50104;52.002;4.688;2023-05-10T18:36:15;7.38;;;4.28;;
47545;SDS011;50104;52.002;4.688;2023-05-10T18:41:16;8.05;;;4.55;;
47545;SDS011;50104;52.002;4.688;2023-05-10T18:46:17;7.70;;;4.50;;
47545;SDS011;50104;52.002;4.688;2023-05-10T18:51:18;8.60;;;4.60;;
47545;SDS011;50104;52.002;4.688;2023-05-10T18:56:22;11.60;;;4.80;;
47545;SDS011;50104;52.002;4.688;2023-05-10T19:01:23;10.85;;;4.80;;
47545;SDS011;50104;52.002;4.688;2023-05-10T19:06:26;9.25;;;5.63;;
47545;SDS011;50104;52.002;4.688;2023-05-10T19:11:27;10.55;;;4.35;;
47545;SDS011;50104;52.002;4.688;2023-05-10T19:16:31;7.63;;;4.68;;
47545;SDS011;50104;52.002;4.688;2023-05-10T19:21:33;9.27;;;4.82;;
47545;SDS011;50104;52.002;4.688;2023-05-10T19:26:34;9.55;;;4.93;;
47545;SDS011;50104;52.002;4.688;2023-05-10T19:31:35;9.95;;;5.25;;
47545;SDS011;50104;52.002;4.688;2023-05-10T19:36:35;7.82;;;4.60;;
47545;SDS011;50104;52.002;4.688;2023-05-10T19:41:38;8.68;;;5.22;;
47545;SDS011;50104;52.002;4.688;2023-05-10T19:46:39;9.98;;;4.40;;
47545;SDS011;50104;52.002;4.688;2023-05-10T19:51:40;11.93;;;5.40;;
47545;SDS011;50104;52.002;4.688;2023-05-10T19:56:42;8.20;;;5.28;;
47545;SDS011;50104;52.002;4.688;2023-05-10T20:01:43;9.35;;;5.45;;
47545;SDS011;50104;52.002;4.688;2023-05-10T20:06:44;10.88;;;5.85;;
47545;SDS011;50104;52.002;4.688;2023-05-10T20:11:44;8.80;;;5.10;;
47545;SDS011;50104;52.002;4.688;2023-05-10T20:16:46;8.55;;;5.45;;
47545;SDS011;50104;52.002;4.688;2023-05-10T20:21:47;9.50;;;5.43;;
47545;SDS011;50104;52.002;4.688;2023-05-10T20:26:47;12.93;;;5.97;;
47545;SDS011;50104;52.002;4.688;2023-05-10T20:31:48;10.63;;;5.90;;
47545;SDS011;50104;52.002;4.688;2023-05-10T20:36:49;15.70;;;8.65;;
47545;SDS011;50104;52.002;4.688;2023-05-10T20:41:50;12.85;;;6.35;;
47545;SDS011;50104;52.002;4.688;2023-05-10T20:46:53;12.10;;;6.15;;
47545;SDS011;50104;52.002;4.688;2023-05-10T20:51:54;11.75;;;6.25;;
47545;SDS011;50104;52.002;4.688;2023-05-10T20:56:55;11.38;;;6.13;;
47545;SDS011;50104;52.002;4.688;2023-05-10T21:01:56;12.10;;;5.70;;
47545;SDS011;50104;52.002;4.688;2023-05-10T21:06:57;11.05;;;6.22;;
47545;SDS011;50104;52.002;4.688;2023-05-10T21:11:58;13.35;;;6.85;;
47545;SDS011;50104;52.002;4.688;2023-05-10T21:17:00;12.93;;;6.75;;
47545;SDS011;50104;52.002;4.688;2023-05-10T21:22:01;13.20;;;6.55;;
47545;SDS011;50104;52.002;4.688;2023-05-10T21:27:02;11.88;;;6.50;;
47545;SDS011;50104;52.002;4.688;2023-05-10T21:32:04;10.40;;;6.05;;
47545;SDS011;50104;52.002;4.688;2023-05-10T21:37:05;13.85;;;7.50;;
47545;SDS011;50104;52.002;4.688;2023-05-10T21:42:06;13.07;;;7.35;;
47545;SDS011;50104;52.002;4.688;2023-05-10T21:47:07;14.70;;;7.80;;
47545;SDS011;50104;52.002;4.688;2023-05-10T21:52:07;13.68;;;7.82;;
47545;SDS011;50104;52.002;4.688;2023-05-10T21:57:08;22.80;;;9.30;;
47545;SDS011;50104;52.002;4.688;2023-05-10T22:02:12;13.77;;;8.48;;
47545;SDS011;50104;52.002;4.688;2023-05-10T22:07:13;13.98;;;8.05;;
47545;SDS011;50104;52.002;4.688;2023-05-10T22:12:15;16.65;;;8.15;;
47545;SDS011;50104;52.002;4.688;2023-05-10T22:17:17;19.20;;;8.30;;
47545;SDS011;50104;52.002;4.688;2023-05-10T22:22:18;19.08;;;9.50;;
47545;SDS011;50104;52.002;4.688;2023-05-10T22:27:19;15.55;;;7.47;;
47545;SDS011;50104;52.002;4.688;2023-05-10T22:32:21;15.85;;;7.25;;
47545;SDS011;50104;52.002;4.688;2023-05-10T22:37:22;15.57;;;8.25;;
47545;SDS011;50104;52.002;4.688;2023-05-10T22:42:22;16.08;;;7.50;;
47545;SDS011;50104;52.002;4.688;2023-05-10T22:47:23;16.17;;;7.65;;
47545;SDS011;50104;52.002;4.688;2023-05-10T22:52:24;15.25;;;8.13;;
47545;SDS011;50104;52.002;4.688;2023-05-10T22:57:25;14.30;;;7.57;;
47545;SDS011;50104;52.002;4.688;2023-05-10T23:02:26;16.30;;;8.90;;
47545;SDS011;50104;52.002;4.688;2023-05-10T23:07:27;15.63;;;8.07;;
47545;SDS011;50104;52.002;4.688;2023-05-10T23:12:29;13.68;;;7.53;;
47545;SDS011;50104;52.002;4.688;2023-05-10T23:17:30;17.00;;;8.80;;
47545;SDS011;50104;52.002;4.688;2023-05-10T23:22:31;15.32;;;8.18;;
47545;SDS011;50104;52.002;4.688;2023-05-10T23:27:32;15.65;;;8.65;;
47545;SDS011;50104;52.002;4.688;2023-05-10T23:32:33;14.98;;;8.52;;
47545;SDS011;50104;52.002;4.688;2023-05-10T23:37:33;13.45;;;7.75;;
47545;SDS011;50104;52.002;4.688;2023-05-10T23:42:35;13.27;;;7.70;;
47545;SDS011;50104;52.002;4.688;2023-05-10T23:47:36;15.18;;;9.10;;
47545;SDS011;50104;52.002;4.688;2023-05-10T23:52:37;17.73;;;9.68;;
47545;SDS011;50104;52.002;4.688;2023-05-10T23:57:38;19.42;;;8.98;;
